Map

Track Data

SID SEASON NUMBER BASIN SUBBASIN NAME ISO_TIME NATURE LAT LON WMO_WIND WMO_PRES WMO_AGENCY TRACK_TYPE DIST2LAND LANDFALL IFLAG USA_AGENCY USA_ATCF_ID USA_LAT USA_LON USA_RECORD USA_STATUS USA_WIND USA_PRES USA_SSHS USA_R34_NE USA_R34_SE USA_R34_SW USA_R34_NW USA_R50_NE USA_R50_SE USA_R50_SW USA_R50_NW USA_R64_NE USA_R64_SE USA_R64_SW USA_R64_NW USA_POCI USA_ROCI USA_RMW USA_EYE TOKYO_LAT TOKYO_LON TOKYO_GRADE TOKYO_WIND TOKYO_PRES TOKYO_R50_DIR TOKYO_R50_LONG TOKYO_R50_SHORT TOKYO_R30_DIR TOKYO_R30_LONG TOKYO_R30_SHORT TOKYO_LAND CMA_LAT CMA_LON CMA_CAT CMA_WIND CMA_PRES HKO_LAT HKO_LON HKO_CAT HKO_WIND HKO_PRES NEWDELHI_LAT NEWDELHI_LON NEWDELHI_GRADE NEWDELHI_WIND NEWDELHI_PRES NEWDELHI_CI NEWDELHI_DP NEWDELHI_POCI REUNION_LAT REUNION_LON REUNION_TYPE REUNION_WIND REUNION_PRES REUNION_TNUM REUNION_CI REUNION_RMW REUNION_R34_NE REUNION_R34_SE REUNION_R34_SW REUNION_R34_NW REUNION_R50_NE REUNION_R50_SE REUNION_R50_SW REUNION_R50_NW REUNION_R64_NE REUNION_R64_SE REUNION_R64_SW REUNION_R64_NW BOM_LAT BOM_LON BOM_TYPE BOM_WIND BOM_PRES BOM_TNUM BOM_CI BOM_RMW BOM_R34_NE BOM_R34_SE BOM_R34_SW BOM_R34_NW BOM_R50_NE BOM_R50_SE BOM_R50_SW BOM_R50_NW BOM_R64_NE BOM_R64_SE BOM_R64_SW BOM_R64_NW BOM_ROCI BOM_POCI BOM_EYE BOM_POS_METHOD BOM_PRES_METHOD NADI_LAT NADI_LON NADI_CAT NADI_WIND NADI_PRES WELLINGTON_LAT WELLINGTON_LON WELLINGTON_WIND WELLINGTON_PRES DS824_LAT DS824_LON DS824_STAGE DS824_WIND DS824_PRES TD9636_LAT TD9636_LON TD9636_STAGE TD9636_WIND TD9636_PRES TD9635_LAT TD9635_LON TD9635_WIND TD9635_PRES TD9635_ROCI NEUMANN_LAT NEUMANN_LON NEUMANN_CLASS NEUMANN_WIND NEUMANN_PRES MLC_LAT MLC_LON MLC_CLASS MLC_WIND MLC_PRES USA_GUST BOM_GUST BOM_GUST_PER REUNION_GUST REUNION_GUST_PER USA_SEAHGT USA_SEARAD_NE USA_SEARAD_SE USA_SEARAD_SW USA_SEARAD_NW STORM_SPEED STORM_DIR
1896219N15128 1896 24 WP MM NOT_NAMED 1896-08-06 04:00:00 NR 15.1000 128.300 main 440 400 __________O___ -1 15.1000 128.300 4 12 277
1896219N15128 1896 24 WP MM NOT_NAMED 1896-08-06 06:00:00 NR 15.1489 127.900 main 400 344 __________P___ -1 15.1489 127.900 4 12 277
1896219N15128 1896 24 WP MM NOT_NAMED 1896-08-06 09:00:00 NR 15.2220 127.305 main 344 293 __________P___ -1 15.2220 127.305 4 11 277
1896219N15128 1896 24 WP MM NOT_NAMED 1896-08-06 12:00:00 NR 15.2962 126.727 main 293 256 __________P___ -1 15.2962 126.727 4 11 278
1896219N15128 1896 24 WP MM NOT_NAMED 1896-08-06 15:00:00 NR 15.3733 126.176 main 256 240 __________P___ -1 15.3733 126.176 4 11 278
1896219N15128 1896 24 WP MM NOT_NAMED 1896-08-06 16:00:00 NR 15.4000 126.000 main 240 217 __________O___ -1 15.4000 126.000 4 10 279
1896219N15128 1896 24 WP MM NOT_NAMED 1896-08-06 18:00:00 NR 15.4552 125.660 main 225 193 __________P___ -1 15.4552 125.660 4 10 280
1896219N15128 1896 24 WP MM NOT_NAMED 1896-08-06 21:00:00 NR 15.5447 125.176 main 193 184 __________P___ -1 15.5447 125.176 4 9 282
1896219N15128 1896 24 WP MM NOT_NAMED 1896-08-07 00:00:00 NR 15.6447 124.711 main 184 190 __________P___ -1 15.6447 124.711 4 9 284
1896219N15128 1896 24 WP MM NOT_NAMED 1896-08-07 03:00:00 NR 15.7585 124.253 main 201 201 __________P___ -1 15.7585 124.253 4 9 285
1896219N15128 1896 24 WP MM NOT_NAMED 1896-08-07 04:00:00 NR 15.8000 124.100 main 201 174 __________O___ -1 15.8000 124.100 4 9 286
1896219N15128 1896 24 WP MM NOT_NAMED 1896-08-07 06:00:00 NR 15.8829 123.794 main 174 119 __________P___ -1 15.8829 123.794 4 9 287
1896219N15128 1896 24 WP MM NOT_NAMED 1896-08-07 09:00:00 NR 16.0200 123.334 main 119 74 __________P___ -1 16.0200 123.334 4 9 288
1896219N15128 1896 24 WP MM NOT_NAMED 1896-08-07 12:00:00 NR 16.1726 122.864 main 74 21 __________P___ -1 16.1726 122.864 4 10 289
1896219N15128 1896 24 WP MM NOT_NAMED 1896-08-07 15:00:00 NR 16.3406 122.372 main 21 0 __________P___ -1 16.3406 122.372 4 10 290
1896219N15128 1896 24 WP MM NOT_NAMED 1896-08-07 16:00:00 NR 16.4000 122.200 main 0 0 __________O___ -1 16.4000 122.200 4 11 289
1896219N15128 1896 24 WP MM NOT_NAMED 1896-08-07 18:00:00 NR 16.5112 121.844 main 0 0 __________P___ -1 16.5112 121.844 4 11 288
1896219N15128 1896 24 WP MM NOT_NAMED 1896-08-07 21:00:00 NR 16.6906 121.286 main 0 0 __________P___ -1 16.6906 121.286 4 12 289
1896219N15128 1896 24 WP MM NOT_NAMED 1896-08-08 00:00:00 NR 16.8905 120.703 main 0 0 __________P___ -1 16.8905 120.703 4 12 291
1896219N15128 1896 24 WP MM NOT_NAMED 1896-08-08 03:00:00 NR 17.1173 120.103 main 33 33 __________P___ -1 17.1173 120.103 4 12 292
1896219N15128 1896 24 WP MM NOT_NAMED 1896-08-08 04:00:00 NR 17.2000 119.900 main 53 53 __________O___ -1 17.2000 119.900 4 13 294
1896219N15128 1896 24 WP MM NOT_NAMED 1896-08-08 06:00:00 NR 17.3769 119.495 main 87 87 __________P___ -1 17.3769 119.495 4 13 296
1896219N15128 1896 24 WP MM NOT_NAMED 1896-08-08 09:00:00 NR 17.6677 118.874 main 148 159 __________P___ -1 17.6677 118.874 4 13 297
1896219N15128 1896 24 WP MM NOT_NAMED 1896-08-08 12:00:00 NR 17.9778 118.244 main 226 226 __________P___ -1 17.9778 118.244 4 14 298
1896219N15128 1896 24 WP MM NOT_NAMED 1896-08-08 15:00:00 NR 18.2949 117.611 main 296 296 __________P___ -1 18.2949 117.611 4 14 298
1896219N15128 1896 24 WP MM NOT_NAMED 1896-08-08 16:00:00 NR 18.4000 117.400 main 319 319 __________O___ -1 18.4000 117.400 4 13 298
1896219N15128 1896 24 WP MM NOT_NAMED 1896-08-08 18:00:00 NR 18.6045 116.993 main 366 366 __________P___ -1 18.6045 116.993 4 13 298
1896219N15128 1896 24 WP MM NOT_NAMED 1896-08-08 21:00:00 NR 18.9118 116.384 main 429 380 __________P___ -1 18.9118 116.384 4 13 298
1896219N15128 1896 24 WP MM NOT_NAMED 1896-08-09 00:00:00 NR 19.2144 115.764 main 380 323 __________P___ -1 19.2144 115.764 4 13 296
1896219N15128 1896 24 WP MM NOT_NAMED 1896-08-09 03:00:00 NR 19.5062 115.121 main 323 308 __________P___ -1 19.5062 115.121 4 14 295
1896219N15128 1896 24 WP MM NOT_NAMED 1896-08-09 04:00:00 NR 19.6000 114.900 main 308 276 __________O___ -1 19.6000 114.900 4 14 294
1896219N15128 1896 24 WP MM NOT_NAMED 1896-08-09 06:00:00 NR 19.7881 114.447 main 276 213 __________P___ -1 19.7881 114.447 4 14 293
1896219N15128 1896 24 WP MM NOT_NAMED 1896-08-09 09:00:00 NR 20.0581 113.743 main 213 172 __________P___ -1 20.0581 113.743 4 14 291
1896219N15128 1896 24 WP MM NOT_NAMED 1896-08-09 12:00:00 NR 20.3081 113.012 main 172 133 __________P___ -1 20.3081 113.012 4 15 289
1896219N15128 1896 24 WP MM NOT_NAMED 1896-08-09 15:00:00 NR 20.5321 112.257 main 133 108 __________P___ -1 20.5321 112.257 4 15 287
1896219N15128 1896 24 WP MM NOT_NAMED 1896-08-09 16:00:00 NR 20.6000 112.000 main 108 80 __________O___ -1 20.6000 112.000 4 15 285
1896219N15128 1896 24 WP MM NOT_NAMED 1896-08-09 18:00:00 NR 20.7249 111.481 main 80 35 __________P___ -1 20.7249 111.481 4 15 283
1896219N15128 1896 24 WP MM NOT_NAMED 1896-08-09 21:00:00 NR 20.8887 110.688 main 35 0 __________P___ -1 20.8887 110.688 4 15 282
1896219N15128 1896 24 WP MM NOT_NAMED 1896-08-10 00:00:00 NR 21.0309 109.883 main 0 0 __________P___ -1 21.0309 109.883 4 15 280
1896219N15128 1896 24 WP MM NOT_NAMED 1896-08-10 03:00:00 NR 21.1591 109.071 main 24 30 __________P___ -1 21.1591 109.071 4 15 280
1896219N15128 1896 24 WP MM NOT_NAMED 1896-08-10 04:00:00 NR 21.2000 108.800 main 44 __________O___ -1 21.2000 108.800 4 15 279

Digital Typhoon Data and Search

About IBTrACS Database

This database is a web-friendly format of International Best Track Archive for Climate Stewardship (IBTrACS), a global best track data archive curated by NOAA dating back to 1842.

Updated: 2021-10-21